Time;durP1;ratioP1;P1;durP2;ratioP2;P2;SDS_P1;SDS_P2;PMS_P1;PMS_P2;Temp;Humidity;BMP_temperature;BMP_pressure;BME280_temperature;BME280_humidity;BME280_pressure;Samples;Min_cycle;Max_cycle;Signal;HPM_P1;HPM_P2
2021/06/06 00:02:00;;;;;;;11.43;4.72;;;;;;;;;;4995611;28;20477;-58
2021/06/06 00:04:27;;;;;;;6.87;2.23;;;;;;;;;;4995572;28;20470;-58
2021/06/06 00:06:54;;;;;;;6.73;2.40;;;;;;;;;;4995724;28;20030;-58
2021/06/06 00:09:22;;;;;;;5.63;2.22;;;;;;;;;;4995707;28;20469;-58
2021/06/06 00:11:52;;;;;;;6.70;2.20;;;;;;;;;;4994719;28;20042;-59
2021/06/06 00:14:27;;;;;;;8.90;2.10;;;;;;;;;;4995278;28;20500;-57
2021/06/06 00:17:00;;;;;;;5.17;1.93;;;;;;;;;;4995355;28;20496;-56
2021/06/06 00:19:31;;;;;;;3.97;2.30;;;;;;;;;;4995400;28;20557;-57
2021/06/06 00:22:11;;;;;;;4.17;1.90;;;;;;;;;;4994777;28;20105;-57
2021/06/06 00:24:39;;;;;;;8.37;1.90;;;;;;;;;;4995082;28;20507;-57
2021/06/06 00:27:30;;;;;;;6.73;2.47;;;;;;;;;;4994484;28;20089;-58
2021/06/06 00:30:02;;;;;;;3.90;1.90;;;;;;;;;;4994787;28;20481;-57
2021/06/06 00:32:32;;;;;;;6.53;2.10;;;;;;;;;;4993957;28;20073;-58
2021/06/06 00:35:18;;;;;;;4.63;2.17;;;;;;;;;;4993849;28;20481;-58
2021/06/06 00:37:52;;;;;;;6.80;2.63;;;;;;;;;;4990169;28;20493;-58
2021/06/06 00:40:31;;;;;;;8.20;2.67;;;;;;;;;;4993867;28;20485;-58
2021/06/06 00:42:59;;;;;;;10.50;2.30;;;;;;;;;;4995924;28;20513;-58
2021/06/06 00:45:29;;;;;;;4.27;2.30;;;;;;;;;;4994685;28;20504;-58
2021/06/06 00:47:57;;;;;;;5.83;2.03;;;;;;;;;;4987219;28;20481;-58
2021/06/06 00:50:27;;;;;;;4.33;1.80;;;;;;;;;;4994579;28;20485;-58
2021/06/06 00:52:56;;;;;;;3.40;1.60;;;;;;;;;;4993847;28;20544;-57
2021/06/06 00:55:23;;;;;;;5.23;1.70;;;;;;;;;;4994803;28;20469;-57
2021/06/06 00:57:51;;;;;;;4.67;2.00;;;;;;;;;;4994580;28;20481;-57
2021/06/06 01:00:36;;;;;;;5.60;2.00;;;;;;;;;;4994536;28;20605;-57
2021/06/06 01:03:10;;;;;;;3.27;1.90;;;;;;;;;;4994573;28;20493;-58
2021/06/06 01:05:48;;;;;;;5.43;2.10;;;;;;;;;;4993999;28;20112;-56
2021/06/06 01:08:20;;;;;;;6.80;1.70;;;;;;;;;;4994293;28;20485;-58
2021/06/06 01:11:03;;;;;;;2.70;1.70;;;;;;;;;;4994009;28;20493;-59
2021/06/06 01:13:50;;;;;;;2.80;1.70;;;;;;;;;;4993535;28;20042;-59
2021/06/06 01:16:22;;;;;;;4.43;1.40;;;;;;;;;;4993943;28;20113;-57
2021/06/06 01:18:50;;;;;;;4.63;1.90;;;;;;;;;;4994004;28;20109;-57
2021/06/06 01:21:37;;;;;;;5.43;1.80;;;;;;;;;;4994017;28;20489;-57
2021/06/06 01:24:04;;;;;;;4.73;2.00;;;;;;;;;;4994137;28;20030;-56
2021/06/06 01:26:31;;;;;;;4.30;2.47;;;;;;;;;;4994030;28;20049;-58
2021/06/06 01:29:12;;;;;;;10.97;2.50;;;;;;;;;;4993904;28;20509;-58
2021/06/06 01:31:42;;;;;;;3.57;1.90;;;;;;;;;;4993863;28;20551;-58
2021/06/06 01:34:11;;;;;;;3.33;1.70;;;;;;;;;;4993659;28;20026;-58
2021/06/06 01:36:42;;;;;;;2.83;1.70;;;;;;;;;;4976428;28;20030;-58
2021/06/06 01:39:14;;;;;;;4.67;1.73;;;;;;;;;;4976589;28;20485;-58
2021/06/06 01:41:43;;;;;;;3.50;1.80;;;;;;;;;;4995560;28;20050;-58
2021/06/06 01:44:17;;;;;;;4.90;2.30;;;;;;;;;;4994051;28;20560;-58
2021/06/06 01:46:47;;;;;;;5.97;2.63;;;;;;;;;;4976340;28;20031;-58
2021/06/06 01:49:17;;;;;;;8.33;5.43;;;;;;;;;;4993900;28;20557;-58
2021/06/06 01:51:46;;;;;;;11.03;5.10;;;;;;;;;;4993679;28;20495;-58
2021/06/06 01:54:15;;;;;;;5.47;2.17;;;;;;;;;;4993522;28;20516;-58
2021/06/06 01:56:46;;;;;;;4.00;1.80;;;;;;;;;;4993646;28;20500;-58
2021/06/06 01:59:26;;;;;;;3.67;1.60;;;;;;;;;;4977043;28;20022;-58
2021/06/06 02:01:54;;;;;;;4.30;1.60;;;;;;;;;;4993407;28;20054;-58
2021/06/06 02:04:23;;;;;;;4.53;1.73;;;;;;;;;;4993539;28;20481;-58
2021/06/06 02:06:52;;;;;;;4.93;1.80;;;;;;;;;;4993523;28;20029;-58
2021/06/06 02:09:23;;;;;;;3.93;1.90;;;;;;;;;;4976407;28;20121;-58
2021/06/06 02:11:55;;;;;;;3.70;1.93;;;;;;;;;;4993718;28;20535;-58
2021/06/06 02:14:24;;;;;;;3.13;1.93;;;;;;;;;;4993333;28;20035;-58
2021/06/06 02:16:54;;;;;;;3.50;1.70;;;;;;;;;;4993767;28;20468;-58
2021/06/06 02:19:24;;;;;;;2.60;1.43;;;;;;;;;;4975907;28;20026;-58
2021/06/06 02:21:56;;;;;;;2.73;1.57;;;;;;;;;;4992872;28;20549;-58
2021/06/06 02:24:24;;;;;;;3.13;1.90;;;;;;;;;;4990588;28;20035;-58
2021/06/06 02:27:03;;;;;;;3.03;1.93;;;;;;;;;;4992339;28;20039;-58
2021/06/06 02:29:41;;;;;;;4.93;2.00;;;;;;;;;;4993065;28;20487;-58
2021/06/06 02:32:17;;;;;;;4.17;2.03;;;;;;;;;;4993198;28;20485;-58
2021/06/06 02:35:00;;;;;;;3.23;2.00;;;;;;;;;;4993019;28;20481;-58
2021/06/06 02:37:32;;;;;;;4.13;2.27;;;;;;;;;;4993328;28;20074;-57
2021/06/06 02:40:09;;;;;;;2.57;1.60;;;;;;;;;;4993000;28;20484;-58
2021/06/06 02:42:41;;;;;;;2.77;1.70;;;;;;;;;;4994708;28;20498;-58
2021/06/06 02:45:14;;;;;;;2.50;1.53;;;;;;;;;;4993014;28;20532;-58
2021/06/06 02:47:42;;;;;;;4.20;1.83;;;;;;;;;;4993244;28;20477;-58
2021/06/06 02:50:21;;;;;;;2.83;1.73;;;;;;;;;;4992949;28;20034;-58
2021/06/06 02:52:51;;;;;;;3.10;1.90;;;;;;;;;;4993390;28;20033;-58
2021/06/06 02:55:21;;;;;;;2.63;1.80;;;;;;;;;;4993112;28;20022;-58
2021/06/06 02:57:52;;;;;;;3.37;2.10;;;;;;;;;;4993017;28;20485;-58
2021/06/06 03:00:26;;;;;;;3.00;1.97;;;;;;;;;;4993051;28;20557;-58
2021/06/06 03:02:57;;;;;;;3.47;1.98;;;;;;;;;;4993063;28;20569;-58
2021/06/06 03:05:27;;;;;;;3.43;2.40;;;;;;;;;;4975703;28;20489;-58
2021/06/06 03:07:57;;;;;;;5.60;2.50;;;;;;;;;;4993162;28;20026;-58
2021/06/06 03:10:25;;;;;;;6.97;2.30;;;;;;;;;;4993008;28;20552;-58
2021/06/06 03:13:01;;;;;;;5.07;2.57;;;;;;;;;;4992898;28;20487;-58
2021/06/06 03:15:39;;;;;;;4.23;2.50;;;;;;;;;;4991998;28;20525;-58
2021/06/06 03:18:19;;;;;;;3.43;2.13;;;;;;;;;;4992950;28;20131;-58
2021/06/06 03:20:51;;;;;;;5.40;2.20;;;;;;;;;;4992755;28;20054;-58
2021/06/06 03:23:30;;;;;;;4.57;2.60;;;;;;;;;;4992624;28;20481;-58
2021/06/06 03:26:13;;;;;;;6.63;2.20;;;;;;;;;;4992376;28;20504;-58
2021/06/06 03:28:54;;;;;;;4.50;2.10;;;;;;;;;;4995608;28;20531;-58
2021/06/06 03:31:31;;;;;;;3.07;2.23;;;;;;;;;;4995990;28;20477;-58
2021/06/06 03:34:00;;;;;;;4.33;2.37;;;;;;;;;;4978789;28;20516;-58
2021/06/06 03:36:37;;;;;;;3.50;2.40;;;;;;;;;;4996297;28;20018;-58
2021/06/06 03:39:11;;;;;;;3.53;2.37;;;;;;;;;;4994643;28;20548;-58
2021/06/06 03:41:38;;;;;;;5.63;2.23;;;;;;;;;;4997491;28;20045;-58
2021/06/06 03:44:06;;;;;;;10.97;2.80;;;;;;;;;;4996091;28;20503;-58
2021/06/06 03:46:37;;;;;;;3.43;2.13;;;;;;;;;;4996126;28;20492;-57
2021/06/06 03:49:05;;;;;;;4.83;2.80;;;;;;;;;;4995817;28;20034;-58
2021/06/06 03:51:32;;;;;;;6.63;2.40;;;;;;;;;;4995740;28;20041;-58
2021/06/06 03:54:02;;;;;;;10.70;2.53;;;;;;;;;;4995905;28;20100;-58
2021/06/06 03:56:32;;;;;;;3.43;2.20;;;;;;;;;;4995621;28;20034;-58
2021/06/06 03:58:59;;;;;;;4.20;2.33;;;;;;;;;;4995558;28;20528;-58
2021/06/06 04:01:30;;;;;;;3.57;2.53;;;;;;;;;;4995742;28;20113;-58
2021/06/06 04:04:01;;;;;;;3.70;2.33;;;;;;;;;;4995131;28;20484;-58
2021/06/06 04:06:28;;;;;;;4.47;2.87;;;;;;;;;;4995462;28;20481;-58
2021/06/06 04:09:07;;;;;;;3.50;2.20;;;;;;;;;;4995735;28;20114;-57
2021/06/06 04:11:44;;;;;;;4.03;2.60;;;;;;;;;;4995510;28;20026;-58
2021/06/06 04:14:14;;;;;;;7.10;2.83;;;;;;;;;;4991746;28;20114;-58
2021/06/06 04:16:41;;;;;;;3.67;2.53;;;;;;;;;;4993948;28;20482;-58
2021/06/06 04:19:15;;;;;;;4.23;2.60;;;;;;;;;;4995734;28;20457;-58
2021/06/06 04:21:45;;;;;;;4.10;2.47;;;;;;;;;;4995046;28;20485;-58
2021/06/06 04:24:14;;;;;;;5.33;3.20;;;;;;;;;;4994477;28;20478;-58
2021/06/06 04:26:41;;;;;;;4.40;3.07;;;;;;;;;;4995235;28;20034;-58
2021/06/06 04:29:08;;;;;;;4.37;2.97;;;;;;;;;;4995235;28;20037;-58
2021/06/06 04:31:37;;;;;;;5.00;2.90;;;;;;;;;;4995169;28;20041;-57
2021/06/06 04:34:07;;;;;;;6.97;3.00;;;;;;;;;;4995436;28;20480;-58
2021/06/06 04:36:46;;;;;;;6.70;3.07;;;;;;;;;;4993602;28;20040;-58
2021/06/06 04:39:18;;;;;;;4.47;2.90;;;;;;;;;;4993873;28;20469;-58
2021/06/06 04:41:45;;;;;;;4.00;2.73;;;;;;;;;;4994828;28;20047;-58
2021/06/06 04:44:13;;;;;;;4.03;2.90;;;;;;;;;;4975470;28;20565;-58
2021/06/06 04:46:47;;;;;;;5.07;3.00;;;;;;;;;;4975558;28;20470;-58
2021/06/06 04:49:16;;;;;;;3.67;2.70;;;;;;;;;;4955413;28;20495;-58
2021/06/06 04:51:44;;;;;;;6.07;3.07;;;;;;;;;;4975710;28;20496;-58
2021/06/06 04:54:12;;;;;;;4.47;3.13;;;;;;;;;;4974811;28;20481;-58
2021/06/06 04:56:39;;;;;;;4.47;3.30;;;;;;;;;;4975198;28;20038;-58
2021/06/06 04:59:06;;;;;;;4.50;2.93;;;;;;;;;;4975212;28;20022;-58
2021/06/06 05:01:35;;;;;;;4.07;3.00;;;;;;;;;;4975090;28;20486;-58
2021/06/06 05:04:02;;;;;;;5.47;3.30;;;;;;;;;;4974486;28;20501;-58
2021/06/06 05:06:29;;;;;;;6.60;3.00;;;;;;;;;;4975044;28;20026;-58
2021/06/06 05:08:56;;;;;;;4.20;2.83;;;;;;;;;;4957653;28;20031;-57
2021/06/06 05:11:26;;;;;;;5.07;2.97;;;;;;;;;;4975207;28;20529;-58
2021/06/06 05:13:54;;;;;;;4.83;3.00;;;;;;;;;;4975120;28;20462;-58
2021/06/06 05:16:21;;;;;;;4.20;2.97;;;;;;;;;;4974779;28;20482;-58
2021/06/06 05:18:48;;;;;;;3.97;2.70;;;;;;;;;;4974789;28;20108;-58
2021/06/06 05:21:15;;;;;;;4.43;3.10;;;;;;;;;;4974686;28;20038;-57
2021/06/06 05:23:43;;;;;;;7.60;3.50;;;;;;;;;;4974701;28;20031;-58
2021/06/06 05:26:10;;;;;;;4.70;3.60;;;;;;;;;;4974625;28;20105;-58
2021/06/06 05:28:38;;;;;;;4.90;3.60;;;;;;;;;;4973896;28;20178;-58
2021/06/06 05:31:08;;;;;;;4.87;3.17;;;;;;;;;;4974544;28;20146;-57
2021/06/06 05:33:36;;;;;;;6.87;3.67;;;;;;;;;;4974472;28;20470;-58
2021/06/06 05:36:04;;;;;;;5.17;3.33;;;;;;;;;;4974701;28;20478;-58
2021/06/06 05:38:32;;;;;;;4.20;2.77;;;;;;;;;;4974348;28;20474;-58
2021/06/06 05:41:00;;;;;;;4.10;3.00;;;;;;;;;;4974418;28;20509;-57
2021/06/06 05:43:28;;;;;;;11.00;2.97;;;;;;;;;;4977002;28;20478;-57
2021/06/06 05:45:56;;;;;;;4.23;3.33;;;;;;;;;;4974635;28;20537;-58
2021/06/06 05:48:24;;;;;;;5.87;3.00;;;;;;;;;;4974561;28;20484;-58
2021/06/06 05:50:52;;;;;;;4.33;3.20;;;;;;;;;;4973821;28;20043;-58
2021/06/06 05:53:19;;;;;;;4.70;2.97;;;;;;;;;;4974319;28;20469;-58
2021/06/06 05:55:48;;;;;;;4.30;3.47;;;;;;;;;;4974545;28;20525;-58
2021/06/06 05:58:16;;;;;;;5.13;3.10;;;;;;;;;;4974118;28;20041;-58
2021/06/06 06:00:44;;;;;;;4.90;3.40;;;;;;;;;;4974147;28;20395;-58
2021/06/06 06:03:12;;;;;;;4.53;3.23;;;;;;;;;;4974349;28;20031;-58
2021/06/06 06:05:40;;;;;;;7.73;3.57;;;;;;;;;;4974045;28;20038;-58
2021/06/06 06:08:27;;;;;;;4.53;3.40;;;;;;;;;;4956478;28;20545;-58
2021/06/06 06:10:56;;;;;;;3.90;2.67;;;;;;;;;;4973687;28;20496;-58
2021/06/06 06:13:24;;;;;;;4.63;3.23;;;;;;;;;;4957206;28;20026;-58
2021/06/06 06:15:51;;;;;;;6.33;3.07;;;;;;;;;;4973975;28;20425;-57
2021/06/06 06:18:19;;;;;;;4.10;3.10;;;;;;;;;;4973951;28;20051;-58
2021/06/06 06:20:46;;;;;;;4.53;3.13;;;;;;;;;;4974049;28;20555;-57
2021/06/06 06:23:13;;;;;;;6.17;3.13;;;;;;;;;;4973963;28;20031;-57
2021/06/06 06:25:41;;;;;;;4.60;3.23;;;;;;;;;;4972917;28;20123;-58
2021/06/06 06:28:08;;;;;;;4.80;3.30;;;;;;;;;;4973883;28;20478;-58
2021/06/06 06:30:38;;;;;;;6.07;3.20;;;;;;;;;;4973825;28;20484;-57
2021/06/06 06:33:06;;;;;;;4.43;3.40;;;;;;;;;;4972376;28;20481;-58
2021/06/06 06:35:33;;;;;;;5.83;3.03;;;;;;;;;;4973712;28;20485;-58
2021/06/06 06:38:01;;;;;;;4.27;3.23;;;;;;;;;;4973769;28;20082;-57
2021/06/06 06:40:29;;;;;;;6.13;2.80;;;;;;;;;;4973819;28;20027;-58
2021/06/06 06:42:56;;;;;;;4.90;3.50;;;;;;;;;;4978174;28;20524;-58
2021/06/06 06:45:25;;;;;;;4.13;3.13;;;;;;;;;;4992620;28;20473;-58
2021/06/06 06:47:52;;;;;;;3.93;2.90;;;;;;;;;;4993456;28;20485;-58
2021/06/06 06:50:21;;;;;;;6.17;2.80;;;;;;;;;;4993032;28;20489;-58
2021/06/06 06:52:48;;;;;;;4.30;3.13;;;;;;;;;;4993188;28;20014;-58
2021/06/06 06:55:17;;;;;;;4.50;2.90;;;;;;;;;;4992467;28;20049;-57
2021/06/06 06:57:44;;;;;;;4.60;3.00;;;;;;;;;;4993142;28;20054;-57
2021/06/06 07:00:15;;;;;;;4.37;2.77;;;;;;;;;;4993009;28;20469;-58
2021/06/06 07:02:42;;;;;;;3.50;2.50;;;;;;;;;;4994880;28;20023;-57
2021/06/06 07:05:10;;;;;;;3.97;2.97;;;;;;;;;;4996720;28;20493;-58
2021/06/06 07:07:37;;;;;;;4.30;2.77;;;;;;;;;;4979316;28;20026;-58
2021/06/06 07:10:05;;;;;;;6.37;3.60;;;;;;;;;;4996770;28;20061;-58
2021/06/06 07:12:34;;;;;;;4.30;3.00;;;;;;;;;;4996604;28;20474;-58
2021/06/06 07:15:01;;;;;;;5.67;3.43;;;;;;;;;;4996568;28;20594;-57
2021/06/06 07:17:30;;;;;;;5.37;2.97;;;;;;;;;;4996545;28;20062;-58
2021/06/06 07:19:58;;;;;;;3.90;2.63;;;;;;;;;;4996487;28;20488;-58
2021/06/06 07:22:25;;;;;;;4.63;3.10;;;;;;;;;;4996439;28;20496;-57
2021/06/06 07:24:52;;;;;;;4.00;2.67;;;;;;;;;;4978914;28;20477;-58
2021/06/06 07:27:19;;;;;;;4.07;2.87;;;;;;;;;;4996629;28;20473;-57
2021/06/06 07:29:48;;;;;;;3.60;2.47;;;;;;;;;;4996033;28;20485;-58
2021/06/06 07:32:16;;;;;;;4.47;3.20;;;;;;;;;;4996254;28;20493;-58
2021/06/06 07:34:46;;;;;;;5.70;2.93;;;;;;;;;;4996024;28;20041;-58
2021/06/06 07:37:15;;;;;;;4.00;2.70;;;;;;;;;;4996132;28;20478;-57
2021/06/06 07:39:43;;;;;;;2.97;1.73;;;;;;;;;;4996220;28;20034;-57
2021/06/06 07:42:12;;;;;;;4.23;1.80;;;;;;;;;;4997322;28;20078;-58
2021/06/06 07:44:39;;;;;;;2.37;1.30;;;;;;;;;;4995984;28;20474;-57
2021/06/06 07:47:07;;;;;;;5.57;1.30;;;;;;;;;;4996007;28;20495;-58
2021/06/06 07:49:35;;;;;;;2.23;1.27;;;;;;;;;;4995671;28;20037;-57
2021/06/06 07:52:03;;;;;;;1.93;1.10;;;;;;;;;;4995905;28;20473;-57
2021/06/06 07:54:30;;;;;;;1.63;1.00;;;;;;;;;;4995686;28;20473;-57
2021/06/06 07:56:59;;;;;;;2.90;1.30;;;;;;;;;;4995744;28;20477;-58
2021/06/06 07:59:26;;;;;;;2.53;1.20;;;;;;;;;;4996254;28;20446;-57
2021/06/06 08:01:55;;;;;;;2.30;1.10;;;;;;;;;;4995917;28;20081;-58
2021/06/06 08:04:23;;;;;;;1.70;1.20;;;;;;;;;;4995622;28;20470;-57
2021/06/06 08:06:50;;;;;;;2.13;1.13;;;;;;;;;;4995650;28;20491;-57
2021/06/06 08:09:17;;;;;;;1.77;1.10;;;;;;;;;;4995771;28;20454;-58
2021/06/06 08:11:44;;;;;;;1.97;1.20;;;;;;;;;;4995532;28;20580;-57
2021/06/06 08:14:13;;;;;;;1.77;1.10;;;;;;;;;;4995238;28;20465;-57
2021/06/06 08:16:41;;;;;;;2.93;1.93;;;;;;;;;;4996003;28;20532;-58
2021/06/06 08:19:08;;;;;;;2.10;1.00;;;;;;;;;;4995309;28;20036;-57
2021/06/06 08:21:40;;;;;;;2.33;1.17;;;;;;;;;;4995547;28;20030;-57
2021/06/06 08:24:08;;;;;;;1.47;0.93;;;;;;;;;;4995148;28;20477;-57
2021/06/06 08:26:35;;;;;;;1.70;0.93;;;;;;;;;;4995367;28;20040;-58
2021/06/06 08:29:03;;;;;;;3.03;1.47;;;;;;;;;;4995018;28;20554;-57
2021/06/06 08:31:32;;;;;;;2.80;1.10;;;;;;;;;;4995181;28;20492;-57
2021/06/06 08:33:59;;;;;;;1.90;1.10;;;;;;;;;;4995107;28;20401;-57
2021/06/06 08:36:29;;;;;;;3.13;1.27;;;;;;;;;;4995002;28;20050;-57
2021/06/06 08:38:57;;;;;;;1.40;0.83;;;;;;;;;;4995027;28;20501;-57
2021/06/06 08:41:37;;;;;;;1.60;0.90;;;;;;;;;;4994832;28;20465;-57
2021/06/06 08:44:08;;;;;;;2.00;1.20;;;;;;;;;;4979816;28;20537;-57
2021/06/06 08:46:38;;;;;;;1.53;1.00;;;;;;;;;;4975424;28;20027;-57
2021/06/06 08:49:06;;;;;;;1.60;0.90;;;;;;;;;;4975361;28;20466;-57
2021/06/06 08:51:36;;;;;;;3.53;1.47;;;;;;;;;;4958295;28;20518;-57
2021/06/06 08:54:14;;;;;;;1.40;1.00;;;;;;;;;;4975249;28;20037;-57
2021/06/06 08:56:42;;;;;;;3.43;1.20;;;;;;;;;;4975433;28;20115;-57
2021/06/06 08:59:12;;;;;;;2.07;1.20;;;;;;;;;;4975366;28;20498;-57
2021/06/06 09:01:54;;;;;;;2.93;1.20;;;;;;;;;;4975097;28;20470;-57
2021/06/06 09:04:22;;;;;;;1.67;1.00;;;;;;;;;;4957910;28;20540;-57
2021/06/06 09:06:49;;;;;;;3.07;1.50;;;;;;;;;;4975017;28;20031;-58
2021/06/06 09:09:17;;;;;;;2.57;1.33;;;;;;;;;;4975260;28;20500;-58
2021/06/06 09:11:45;;;;;;;2.30;1.20;;;;;;;;;;4974940;28;20031;-58
2021/06/06 09:14:12;;;;;;;2.00;1.10;;;;;;;;;;4974999;28;20027;-58
2021/06/06 09:16:57;;;;;;;3.20;1.10;;;;;;;;;;4957051;28;20521;-58
2021/06/06 09:19:26;;;;;;;2.35;1.30;;;;;;;;;;4974830;28;20514;-56
2021/06/06 09:21:58;;;;;;;2.57;1.10;;;;;;;;;;4974779;28;20504;-58
2021/06/06 09:24:41;;;;;;;2.00;1.07;;;;;;;;;;4974158;28;20470;-58
2021/06/06 09:27:14;;;;;;;2.73;0.80;;;;;;;;;;4974728;28;20520;-58
2021/06/06 09:29:41;;;;;;;1.40;1.00;;;;;;;;;;4974775;28;20034;-58
2021/06/06 09:32:14;;;;;;;2.30;1.10;;;;;;;;;;4974586;28;20485;-58
2021/06/06 09:34:53;;;;;;;1.13;0.87;;;;;;;;;;4973891;28;20490;-58
2021/06/06 09:37:22;;;;;;;1.93;0.70;;;;;;;;;;4974496;28;20462;-58
2021/06/06 09:39:53;;;;;;;1.10;0.80;;;;;;;;;;4974531;28;20117;-58
2021/06/06 09:42:40;;;;;;;1.00;0.70;;;;;;;;;;4978824;28;20493;-58
2021/06/06 09:45:23;;;;;;;1.60;1.00;;;;;;;;;;4993889;28;20038;-58
2021/06/06 09:48:03;;;;;;;1.47;0.87;;;;;;;;;;4993830;28;20045;-58
2021/06/06 09:50:35;;;;;;;1.70;0.70;;;;;;;;;;4993839;28;20469;-58
2021/06/06 09:53:13;;;;;;;1.87;0.90;;;;;;;;;;4993624;28;20486;-58
2021/06/06 09:55:41;;;;;;;3.33;0.88;;;;;;;;;;4993627;28;20496;-58
2021/06/06 09:58:38;;;;;;;1.37;0.87;;;;;;;;;;4993821;28;20525;-58
2021/06/06 10:01:25;;;;;;;1.23;0.83;;;;;;;;;;4974081;28;20469;-58
2021/06/06 10:03:55;;;;;;;1.67;0.77;;;;;;;;;;4976008;28;20034;-58
2021/06/06 10:06:23;;;;;;;1.63;0.87;;;;;;;;;;4993531;28;20488;-58
2021/06/06 10:09:01;;;;;;;1.20;0.80;;;;;;;;;;4992793;28;20469;-58
2021/06/06 10:11:41;;;;;;;1.97;1.00;;;;;;;;;;4993604;28;20116;-58
2021/06/06 10:14:08;;;;;;;2.07;1.03;;;;;;;;;;4992807;28;20053;-58
2021/06/06 10:16:42;;;;;;;2.97;1.07;;;;;;;;;;4993408;28;20500;-58
2021/06/06 10:19:09;;;;;;;3.23;1.00;;;;;;;;;;4993322;28;20473;-58
2021/06/06 10:21:37;;;;;;;2.13;1.00;;;;;;;;;;4993266;28;20481;-58
2021/06/06 10:24:10;;;;;;;2.37;1.27;;;;;;;;;;4993490;28;20473;-58
2021/06/06 10:26:39;;;;;;;2.63;1.10;;;;;;;;;;4993285;28;20485;-58
2021/06/06 10:29:13;;;;;;;3.47;0.90;;;;;;;;;;4993255;28;20031;-58
2021/06/06 10:31:42;;;;;;;2.30;1.17;;;;;;;;;;4993294;28;20034;-58
2021/06/06 10:34:27;;;;;;;1.87;0.90;;;;;;;;;;4993016;28;20477;-58
2021/06/06 10:36:55;;;;;;;5.97;1.58;;;;;;;;;;4985400;28;20488;-58
2021/06/06 10:39:24;;;;;;;1.70;1.00;;;;;;;;;;4997158;28;20045;-58
2021/06/06 10:42:01;;;;;;;1.80;1.00;;;;;;;;;;4997499;28;20513;-58
2021/06/06 10:44:33;;;;;;;3.13;1.40;;;;;;;;;;4998735;28;20489;-57
2021/06/06 10:47:10;;;;;;;3.70;1.30;;;;;;;;;;4996146;28;20500;-56
2021/06/06 10:49:40;;;;;;;1.80;1.10;;;;;;;;;;4996887;28;20680;-57
2021/06/06 10:52:09;;;;;;;2.30;1.27;;;;;;;;;;4979851;28;20512;-58
2021/06/06 10:54:36;;;;;;;4.73;1.20;;;;;;;;;;4996968;28;20485;-58
2021/06/06 10:57:09;;;;;;;3.00;1.03;;;;;;;;;;4997204;28;20548;-58
2021/06/06 10:59:48;;;;;;;1.80;1.00;;;;;;;;;;4995876;28;20046;-58
2021/06/06 11:02:33;;;;;;;2.63;1.40;;;;;;;;;;4996853;28;20538;-58
2021/06/06 11:05:03;;;;;;;2.80;1.33;;;;;;;;;;4996696;28;20035;-58
2021/06/06 11:07:45;;;;;;;2.03;1.33;;;;;;;;;;4997015;28;20477;-58
2021/06/06 11:10:21;;;;;;;4.17;1.70;;;;;;;;;;4996804;28;20038;-58
2021/06/06 11:12:51;;;;;;;2.70;1.77;;;;;;;;;;4996626;28;20488;-58
2021/06/06 11:15:18;;;;;;;4.53;1.77;;;;;;;;;;4996816;28;20549;-58
2021/06/06 11:17:45;;;;;;;3.57;1.47;;;;;;;;;;4996838;28;20549;-57
2021/06/06 11:20:32;;;;;;;5.23;1.67;;;;;;;;;;4996364;28;20496;-58
2021/06/06 11:23:00;;;;;;;4.00;1.80;;;;;;;;;;4996335;28;20501;-58
2021/06/06 11:25:44;;;;;;;3.33;1.50;;;;;;;;;;4995526;28;20042;-57
2021/06/06 11:28:24;;;;;;;4.87;1.50;;;;;;;;;;4996359;28;20473;-58
2021/06/06 11:30:52;;;;;;;8.53;1.93;;;;;;;;;;4996337;28;20038;-57
2021/06/06 11:33:42;;;;;;;2.80;1.73;;;;;;;;;;4996149;28;20029;-58
2021/06/06 11:36:09;;;;;;;2.20;1.33;;;;;;;;;;4996308;28;20502;-58
2021/06/06 11:38:48;;;;;;;10.07;1.87;;;;;;;;;;4996214;28;20508;-58
2021/06/06 11:41:31;;;;;;;4.90;1.50;;;;;;;;;;4996316;28;20034;-57
2021/06/06 11:44:18;;;;;;;3.37;1.70;;;;;;;;;;4987520;28;20525;-58
2021/06/06 11:47:06;;;;;;;4.60;1.57;;;;;;;;;;4976610;28;20541;-58
2021/06/06 11:49:40;;;;;;;2.17;1.40;;;;;;;;;;4976219;28;20035;-58
2021/06/06 11:52:17;;;;;;;2.90;1.67;;;;;;;;;;4976606;28;20501;-58
2021/06/06 11:54:57;;;;;;;5.03;1.43;;;;;;;;;;4976391;28;20478;-58
2021/06/06 11:57:27;;;;;;;4.30;1.77;;;;;;;;;;4973622;28;20031;-58
2021/06/06 12:00:00;;;;;;;4.20;1.50;;;;;;;;;;4959889;28;20481;-58
2021/06/06 12:02:30;;;;;;;4.27;1.80;;;;;;;;;;4975996;28;20031;-57
2021/06/06 12:04:57;;;;;;;2.90;1.80;;;;;;;;;;4976270;28;20493;-57
2021/06/06 12:07:28;;;;;;;5.20;1.77;;;;;;;;;;4976360;28;20470;-58
2021/06/06 12:09:57;;;;;;;3.30;1.70;;;;;;;;;;4976157;28;20494;-58
2021/06/06 12:12:28;;;;;;;3.20;2.00;;;;;;;;;;4976428;28;20508;-58
2021/06/06 12:15:14;;;;;;;3.73;2.27;;;;;;;;;;4976113;28;20035;-57
2021/06/06 12:17:41;;;;;;;3.03;1.90;;;;;;;;;;4976063;28;20505;-56
2021/06/06 12:20:11;;;;;;;4.73;2.20;;;;;;;;;;4976217;28;20466;-57
2021/06/06 12:22:40;;;;;;;3.90;1.97;;;;;;;;;;4975958;28;20485;-57
2021/06/06 12:25:21;;;;;;;5.13;2.30;;;;;;;;;;4975911;28;20019;-57
2021/06/06 12:28:03;;;;;;;3.33;2.10;;;;;;;;;;4976057;28;20486;-57
2021/06/06 12:30:54;;;;;;;5.70;2.43;;;;;;;;;;4975670;28;20557;-56
2021/06/06 12:33:33;;;;;;;8.00;3.27;;;;;;;;;;4975576;28;20509;-58
2021/06/06 12:36:09;;;;;;;8.07;3.60;;;;;;;;;;4975012;28;20043;-58
2021/06/06 12:38:37;;;;;;;5.50;3.20;;;;;;;;;;4975533;28;20482;-57
2021/06/06 12:41:06;;;;;;;5.87;3.03;;;;;;;;;;4975580;28;20478;-57
2021/06/06 12:43:35;;;;;;;6.70;3.30;;;;;;;;;;4978048;28;20490;-57
2021/06/06 12:46:04;;;;;;;12.23;3.77;;;;;;;;;;4975815;28;20462;-62
2021/06/06 12:48:33;;;;;;;6.13;3.07;;;;;;;;;;4975713;28;20458;-57
2021/06/06 12:51:02;;;;;;;4.60;2.77;;;;;;;;;;4975372;28;20486;-58
2021/06/06 12:53:34;;;;;;;5.90;3.10;;;;;;;;;;4975388;28;20474;-58
2021/06/06 12:56:13;;;;;;;5.13;3.10;;;;;;;;;;4975245;28;20563;-58
2021/06/06 12:58:45;;;;;;;6.10;3.57;;;;;;;;;;4975175;28;20479;-58
2021/06/06 13:01:13;;;;;;;4.87;3.40;;;;;;;;;;4973282;28;20497;-57
2021/06/06 13:03:46;;;;;;;5.97;3.73;;;;;;;;;;4975038;28;20113;-57
2021/06/06 13:06:16;;;;;;;7.27;3.50;;;;;;;;;;4975146;28;20500;-58
2021/06/06 13:08:43;;;;;;;8.53;5.00;;;;;;;;;;4975126;28;20521;-58
2021/06/06 13:11:13;;;;;;;6.47;4.03;;;;;;;;;;4975025;28;20089;-58
2021/06/06 13:13:46;;;;;;;7.33;3.70;;;;;;;;;;4974491;28;20508;-58
2021/06/06 13:16:31;;;;;;;6.73;4.00;;;;;;;;;;4974976;28;20541;-58
2021/06/06 13:19:04;;;;;;;5.88;3.80;;;;;;;;;;4974239;28;20031;-57
2021/06/06 13:21:51;;;;;;;5.27;3.57;;;;;;;;;;4974782;28;20486;-58
2021/06/06 13:24:26;;;;;;;4.70;3.13;;;;;;;;;;4974632;28;20474;-58
2021/06/06 13:27:06;;;;;;;5.33;3.30;;;;;;;;;;4974807;28;20026;-58
2021/06/06 13:29:37;;;;;;;5.30;3.67;;;;;;;;;;4974737;28;20500;-58
2021/06/06 13:32:11;;;;;;;4.93;2.87;;;;;;;;;;4974833;28;20478;-57
2021/06/06 13:34:38;;;;;;;7.40;3.17;;;;;;;;;;4974446;28;20533;-56
2021/06/06 13:37:05;;;;;;;5.97;2.60;;;;;;;;;;4974570;28;20027;-57
2021/06/06 13:39:34;;;;;;;5.37;3.13;;;;;;;;;;4974426;28;20470;-57
2021/06/06 13:42:01;;;;;;;5.77;3.20;;;;;;;;;;4975050;28;20109;-57
2021/06/06 13:44:30;;;;;;;8.73;3.80;;;;;;;;;;4989251;28;20494;-57
2021/06/06 13:46:58;;;;;;;5.23;3.50;;;;;;;;;;4986473;28;20461;-58
2021/06/06 13:49:26;;;;;;;4.73;3.10;;;;;;;;;;4993163;28;20485;-58
2021/06/06 13:51:53;;;;;;;3.70;2.50;;;;;;;;;;4994040;28;20465;-57
2021/06/06 13:54:20;;;;;;;4.77;3.17;;;;;;;;;;4993837;28;20469;-58
2021/06/06 13:56:50;;;;;;;5.60;4.00;;;;;;;;;;4993294;28;20500;-58
2021/06/06 13:59:17;;;;;;;3.73;2.43;;;;;;;;;;4993646;28;20481;-58
2021/06/06 14:01:44;;;;;;;4.20;2.67;;;;;;;;;;4993964;28;20487;-58
2021/06/06 14:04:13;;;;;;;3.80;2.70;;;;;;;;;;4994116;28;20462;-58
2021/06/06 14:06:40;;;;;;;6.03;2.63;;;;;;;;;;4993004;28;20512;-58
2021/06/06 14:09:10;;;;;;;3.63;2.40;;;;;;;;;;4994017;28;20646;-58
2021/06/06 14:11:41;;;;;;;6.63;2.87;;;;;;;;;;4993299;28;20532;-58
2021/06/06 14:14:08;;;;;;;4.10;2.50;;;;;;;;;;4993679;28;20567;-58
2021/06/06 14:16:37;;;;;;;6.53;3.33;;;;;;;;;;4993701;28;20484;-58
2021/06/06 14:19:06;;;;;;;6.47;3.10;;;;;;;;;;4993374;28;20521;-58
2021/06/06 14:21:34;;;;;;;6.73;3.20;;;;;;;;;;4976221;28;20045;-58
2021/06/06 14:24:02;;;;;;;7.17;2.43;;;;;;;;;;4993041;28;20473;-58
2021/06/06 14:26:32;;;;;;;4.97;3.27;;;;;;;;;;4993090;28;20532;-58
2021/06/06 14:28:59;;;;;;;5.07;2.63;;;;;;;;;;4993224;28;20508;-57
2021/06/06 14:31:28;;;;;;;7.13;3.00;;;;;;;;;;4993337;28;20035;-57
2021/06/06 14:33:55;;;;;;;3.80;2.73;;;;;;;;;;4985162;28;20489;-57
2021/06/06 14:36:24;;;;;;;4.67;2.97;;;;;;;;;;4993173;28;20481;-57
2021/06/06 14:38:52;;;;;;;7.27;2.70;;;;;;;;;;4993422;28;20500;-58
2021/06/06 14:41:20;;;;;;;5.53;3.53;;;;;;;;;;4993382;28;20117;-58
2021/06/06 14:43:47;;;;;;;5.83;3.13;;;;;;;;;;4994288;28;20532;-58
2021/06/06 14:46:15;;;;;;;5.80;3.23;;;;;;;;;;4993199;28;20458;-58
2021/06/06 14:48:42;;;;;;;8.17;4.10;;;;;;;;;;4993109;28;20030;-58
2021/06/06 14:51:12;;;;;;;4.03;2.70;;;;;;;;;;4992835;28;20528;-58
2021/06/06 14:53:40;;;;;;;5.53;3.13;;;;;;;;;;4993022;28;20045;-57
2021/06/06 14:56:08;;;;;;;5.30;3.23;;;;;;;;;;4993337;28;20093;-57
2021/06/06 14:58:38;;;;;;;5.97;3.70;;;;;;;;;;4993228;28;20525;-57
2021/06/06 15:01:24;;;;;;;5.17;3.00;;;;;;;;;;4993015;28;20465;-58
2021/06/06 15:03:53;;;;;;;5.67;3.13;;;;;;;;;;4992993;28;20536;-58
2021/06/06 15:06:21;;;;;;;7.73;3.50;;;;;;;;;;4993205;28;20030;-56
2021/06/06 15:08:49;;;;;;;5.40;3.23;;;;;;;;;;4975402;28;20520;-57